sensor_id;sensor_type;location;lat;lon;timestamp;P1;durP1;ratioP1;P2;durP2;ratioP2
67889;SDS011;54685;52.082;5.426;2022-08-25T00:01:59;6.07;;;5.57;;
67889;SDS011;54685;52.082;5.426;2022-08-25T00:04:29;6.43;;;5.82;;
67889;SDS011;54685;52.082;5.426;2022-08-25T00:06:58;8.18;;;5.60;;
67889;SDS011;54685;52.082;5.426;2022-08-25T00:09:29;7.65;;;5.70;;
67889;SDS011;54685;52.082;5.426;2022-08-25T00:11:57;7.93;;;5.70;;
67889;SDS011;54685;52.082;5.426;2022-08-25T00:14:29;6.25;;;5.65;;
67889;SDS011;54685;52.082;5.426;2022-08-25T00:16:58;8.05;;;6.20;;
67889;SDS011;54685;52.082;5.426;2022-08-25T00:19:27;8.70;;;5.75;;
67889;SDS011;54685;52.082;5.426;2022-08-25T00:21:57;5.88;;;5.30;;
67889;SDS011;54685;52.082;5.426;2022-08-25T00:24:24;11.98;;;6.30;;
67889;SDS011;54685;52.082;5.426;2022-08-25T00:26:53;7.43;;;5.93;;
67889;SDS011;54685;52.082;5.426;2022-08-25T00:29:22;7.18;;;6.40;;
67889;SDS011;54685;52.082;5.426;2022-08-25T00:31:53;12.27;;;6.82;;
67889;SDS011;54685;52.082;5.426;2022-08-25T00:34:26;6.88;;;6.28;;
67889;SDS011;54685;52.082;5.426;2022-08-25T00:36:56;7.53;;;6.82;;
67889;SDS011;54685;52.082;5.426;2022-08-25T00:39:24;7.93;;;6.57;;
67889;SDS011;54685;52.082;5.426;2022-08-25T00:41:52;9.85;;;6.47;;
67889;SDS011;54685;52.082;5.426;2022-08-25T00:44:22;9.00;;;6.03;;
67889;SDS011;54685;52.082;5.426;2022-08-25T00:46:52;7.18;;;5.88;;
67889;SDS011;54685;52.082;5.426;2022-08-25T00:49:26;9.27;;;6.82;;
67889;SDS011;54685;52.082;5.426;2022-08-25T00:52:04;11.40;;;6.10;;
67889;SDS011;54685;52.082;5.426;2022-08-25T00:54:56;9.48;;;6.78;;
67889;SDS011;54685;52.082;5.426;2022-08-25T00:57:35;7.85;;;6.88;;
67889;SDS011;54685;52.082;5.426;2022-08-25T01:00:15;10.60;;;6.55;;
67889;SDS011;54685;52.082;5.426;2022-08-25T01:02:47;9.02;;;7.63;;
67889;SDS011;54685;52.082;5.426;2022-08-25T01:05:14;12.02;;;7.55;;
67889;SDS011;54685;52.082;5.426;2022-08-25T01:07:41;8.80;;;7.97;;
67889;SDS011;54685;52.082;5.426;2022-08-25T01:10:10;8.73;;;7.82;;
67889;SDS011;54685;52.082;5.426;2022-08-25T01:12:38;10.93;;;7.28;;
67889;SDS011;54685;52.082;5.426;2022-08-25T01:15:07;7.80;;;6.90;;
67889;SDS011;54685;52.082;5.426;2022-08-25T01:17:46;7.13;;;6.53;;
67889;SDS011;54685;52.082;5.426;2022-08-25T01:20:16;7.72;;;6.93;;
67889;SDS011;54685;52.082;5.426;2022-08-25T01:22:45;8.13;;;7.32;;
67889;SDS011;54685;52.082;5.426;2022-08-25T01:25:29;8.52;;;7.65;;
67889;SDS011;54685;52.082;5.426;2022-08-25T01:28:04;10.88;;;7.20;;
67889;SDS011;54685;52.082;5.426;2022-08-25T01:30:31;8.15;;;7.45;;
67889;SDS011;54685;52.082;5.426;2022-08-25T01:33:01;8.25;;;7.57;;
67889;SDS011;54685;52.082;5.426;2022-08-25T01:35:33;7.75;;;7.05;;
67889;SDS011;54685;52.082;5.426;2022-08-25T01:38:00;8.90;;;7.38;;
67889;SDS011;54685;52.082;5.426;2022-08-25T01:40:29;8.52;;;7.60;;
67889;SDS011;54685;52.082;5.426;2022-08-25T01:45:28;9.05;;;8.15;;
67889;SDS011;54685;52.082;5.426;2022-08-25T01:47:55;8.45;;;7.65;;
67889;SDS011;54685;52.082;5.426;2022-08-25T01:50:22;10.88;;;7.35;;
67889;SDS011;54685;52.082;5.426;2022-08-25T01:55:28;8.60;;;7.70;;
67889;SDS011;54685;52.082;5.426;2022-08-25T01:57:56;8.63;;;7.78;;
67889;SDS011;54685;52.082;5.426;2022-08-25T02:00:26;12.43;;;8.20;;
67889;SDS011;54685;52.082;5.426;2022-08-25T02:02:53;9.63;;;8.68;;
67889;SDS011;54685;52.082;5.426;2022-08-25T02:05:20;9.25;;;8.40;;
67889;SDS011;54685;52.082;5.426;2022-08-25T02:07:49;9.90;;;8.50;;
67889;SDS011;54685;52.082;5.426;2022-08-25T02:10:15;10.93;;;8.10;;
67889;SDS011;54685;52.082;5.426;2022-08-25T02:12:42;9.10;;;8.25;;
67889;SDS011;54685;52.082;5.426;2022-08-25T02:15:09;9.07;;;8.13;;
67889;SDS011;54685;52.082;5.426;2022-08-25T02:17:36;9.40;;;8.45;;
67889;SDS011;54685;52.082;5.426;2022-08-25T02:20:05;10.85;;;9.10;;
67889;SDS011;54685;52.082;5.426;2022-08-25T02:22:33;10.00;;;9.00;;
67889;SDS011;54685;52.082;5.426;2022-08-25T02:25:00;12.20;;;9.63;;
67889;SDS011;54685;52.082;5.426;2022-08-25T02:27:27;10.52;;;9.30;;
67889;SDS011;54685;52.082;5.426;2022-08-25T02:29:54;11.93;;;9.88;;
67889;SDS011;54685;52.082;5.426;2022-08-25T02:32:20;9.25;;;8.40;;
67889;SDS011;54685;52.082;5.426;2022-08-25T02:34:47;8.38;;;7.65;;
67889;SDS011;54685;52.082;5.426;2022-08-25T02:37:14;9.95;;;8.75;;
67889;SDS011;54685;52.082;5.426;2022-08-25T02:39:42;9.77;;;8.65;;
67889;SDS011;54685;52.082;5.426;2022-08-25T02:42:09;9.75;;;8.07;;
67889;SDS011;54685;52.082;5.426;2022-08-25T02:44:36;11.98;;;8.75;;
67889;SDS011;54685;52.082;5.426;2022-08-25T02:47:02;10.73;;;9.02;;
67889;SDS011;54685;52.082;5.426;2022-08-25T02:49:29;8.85;;;8.15;;
67889;SDS011;54685;52.082;5.426;2022-08-25T02:51:57;8.80;;;7.97;;
67889;SDS011;54685;52.082;5.426;2022-08-25T02:54:26;9.77;;;8.88;;
67889;SDS011;54685;52.082;5.426;2022-08-25T02:56:53;10.85;;;9.02;;
67889;SDS011;54685;52.082;5.426;2022-08-25T02:59:20;10.57;;;9.52;;
67889;SDS011;54685;52.082;5.426;2022-08-25T03:01:47;10.70;;;9.38;;
67889;SDS011;54685;52.082;5.426;2022-08-25T03:04:14;10.75;;;9.75;;
67889;SDS011;54685;52.082;5.426;2022-08-25T03:06:40;10.95;;;9.95;;
67889;SDS011;54685;52.082;5.426;2022-08-25T03:09:09;10.95;;;9.85;;
67889;SDS011;54685;52.082;5.426;2022-08-25T03:11:36;11.23;;;9.95;;
67889;SDS011;54685;52.082;5.426;2022-08-25T03:14:04;10.60;;;9.50;;
67889;SDS011;54685;52.082;5.426;2022-08-25T03:16:32;9.50;;;8.70;;
67889;SDS011;54685;52.082;5.426;2022-08-25T03:18:59;10.43;;;9.30;;
67889;SDS011;54685;52.082;5.426;2022-08-25T03:21:27;10.25;;;9.02;;
67889;SDS011;54685;52.082;5.426;2022-08-25T03:23:55;13.13;;;8.88;;
67889;SDS011;54685;52.082;5.426;2022-08-25T03:26:22;8.95;;;8.25;;
67889;SDS011;54685;52.082;5.426;2022-08-25T03:29:08;10.60;;;8.90;;
67889;SDS011;54685;52.082;5.426;2022-08-25T03:31:35;10.50;;;8.50;;
67889;SDS011;54685;52.082;5.426;2022-08-25T03:34:03;12.07;;;9.18;;
67889;SDS011;54685;52.082;5.426;2022-08-25T03:36:30;11.30;;;8.68;;
67889;SDS011;54685;52.082;5.426;2022-08-25T03:38:57;9.68;;;8.73;;
67889;SDS011;54685;52.082;5.426;2022-08-25T03:41:26;9.82;;;8.75;;
67889;SDS011;54685;52.082;5.426;2022-08-25T03:44:00;10.98;;;8.65;;
67889;SDS011;54685;52.082;5.426;2022-08-25T03:46:33;9.35;;;8.23;;
67889;SDS011;54685;52.082;5.426;2022-08-25T03:49:04;13.50;;;7.93;;
67889;SDS011;54685;52.082;5.426;2022-08-25T03:51:34;8.85;;;8.02;;
67889;SDS011;54685;52.082;5.426;2022-08-25T03:54:03;9.30;;;8.38;;
67889;SDS011;54685;52.082;5.426;2022-08-25T03:56:31;10.55;;;8.75;;
67889;SDS011;54685;52.082;5.426;2022-08-25T03:58:58;10.93;;;8.38;;
67889;SDS011;54685;52.082;5.426;2022-08-25T04:01:25;12.50;;;8.50;;
67889;SDS011;54685;52.082;5.426;2022-08-25T04:03:52;10.60;;;8.52;;
67889;SDS011;54685;52.082;5.426;2022-08-25T04:06:19;9.43;;;7.93;;
67889;SDS011;54685;52.082;5.426;2022-08-25T04:08:46;11.00;;;8.45;;
67889;SDS011;54685;52.082;5.426;2022-08-25T04:11:18;11.93;;;8.30;;
67889;SDS011;54685;52.082;5.426;2022-08-25T04:13:47;9.00;;;7.75;;
67889;SDS011;54685;52.082;5.426;2022-08-25T04:16:16;9.30;;;8.10;;
67889;SDS011;54685;52.082;5.426;2022-08-25T04:18:48;14.18;;;7.93;;
67889;SDS011;54685;52.082;5.426;2022-08-25T04:21:21;8.98;;;7.88;;
67889;SDS011;54685;52.082;5.426;2022-08-25T04:23:48;8.63;;;7.47;;
67889;SDS011;54685;52.082;5.426;2022-08-25T04:26:24;9.50;;;7.25;;
67889;SDS011;54685;52.082;5.426;2022-08-25T04:29:00;8.60;;;7.75;;
67889;SDS011;54685;52.082;5.426;2022-08-25T04:31:29;11.05;;;7.72;;
67889;SDS011;54685;52.082;5.426;2022-08-25T04:33:57;8.98;;;8.18;;
67889;SDS011;54685;52.082;5.426;2022-08-25T04:36:23;9.25;;;8.10;;
67889;SDS011;54685;52.082;5.426;2022-08-25T04:38:50;10.02;;;8.48;;
67889;SDS011;54685;52.082;5.426;2022-08-25T04:41:18;8.93;;;8.10;;
67889;SDS011;54685;52.082;5.426;2022-08-25T04:43:47;10.88;;;8.35;;
67889;SDS011;54685;52.082;5.426;2022-08-25T04:46:16;10.68;;;7.80;;
67889;SDS011;54685;52.082;5.426;2022-08-25T04:48:46;10.57;;;7.55;;
67889;SDS011;54685;52.082;5.426;2022-08-25T04:51:15;8.40;;;7.60;;
67889;SDS011;54685;52.082;5.426;2022-08-25T04:53:44;8.38;;;7.30;;
67889;SDS011;54685;52.082;5.426;2022-08-25T04:56:12;8.10;;;7.30;;
67889;SDS011;54685;52.082;5.426;2022-08-25T04:58:41;7.60;;;6.88;;
67889;SDS011;54685;52.082;5.426;2022-08-25T05:01:09;6.90;;;6.30;;
67889;SDS011;54685;52.082;5.426;2022-08-25T05:03:39;7.13;;;6.43;;
67889;SDS011;54685;52.082;5.426;2022-08-25T05:06:07;11.00;;;7.50;;
67889;SDS011;54685;52.082;5.426;2022-08-25T05:08:40;8.30;;;7.25;;
67889;SDS011;54685;52.082;5.426;2022-08-25T05:11:11;9.25;;;7.60;;
67889;SDS011;54685;52.082;5.426;2022-08-25T05:13:40;8.40;;;7.55;;
67889;SDS011;54685;52.082;5.426;2022-08-25T05:16:07;10.82;;;7.47;;
67889;SDS011;54685;52.082;5.426;2022-08-25T05:18:36;14.95;;;7.80;;
67889;SDS011;54685;52.082;5.426;2022-08-25T05:21:04;10.27;;;7.65;;
67889;SDS011;54685;52.082;5.426;2022-08-25T05:23:33;10.02;;;7.28;;
67889;SDS011;54685;52.082;5.426;2022-08-25T05:26:05;9.52;;;7.05;;
67889;SDS011;54685;52.082;5.426;2022-08-25T05:28:38;8.00;;;7.20;;
67889;SDS011;54685;52.082;5.426;2022-08-25T05:31:07;9.30;;;7.40;;
67889;SDS011;54685;52.082;5.426;2022-08-25T05:33:36;7.88;;;7.22;;
67889;SDS011;54685;52.082;5.426;2022-08-25T05:36:07;9.05;;;7.18;;
67889;SDS011;54685;52.082;5.426;2022-08-25T05:38:35;13.50;;;7.65;;
67889;SDS011;54685;52.082;5.426;2022-08-25T05:41:04;11.38;;;7.32;;
67889;SDS011;54685;52.082;5.426;2022-08-25T05:43:33;10.07;;;8.00;;
67889;SDS011;54685;52.082;5.426;2022-08-25T05:46:05;11.85;;;7.95;;
67889;SDS011;54685;52.082;5.426;2022-08-25T05:48:33;11.18;;;7.55;;
67889;SDS011;54685;52.082;5.426;2022-08-25T05:51:00;11.13;;;7.65;;
67889;SDS011;54685;52.082;5.426;2022-08-25T05:53:29;15.27;;;7.93;;
67889;SDS011;54685;52.082;5.426;2022-08-25T05:55:59;14.30;;;8.70;;
67889;SDS011;54685;52.082;5.426;2022-08-25T05:58:27;12.85;;;7.90;;
67889;SDS011;54685;52.082;5.426;2022-08-25T06:00:55;15.98;;;8.10;;
67889;SDS011;54685;52.082;5.426;2022-08-25T06:03:44;17.52;;;7.68;;
67889;SDS011;54685;52.082;5.426;2022-08-25T06:06:12;15.85;;;7.97;;
67889;SDS011;54685;52.082;5.426;2022-08-25T06:08:41;16.73;;;7.70;;
67889;SDS011;54685;52.082;5.426;2022-08-25T06:11:10;13.48;;;7.18;;
67889;SDS011;54685;52.082;5.426;2022-08-25T06:13:38;12.98;;;7.13;;
67889;SDS011;54685;52.082;5.426;2022-08-25T06:16:05;13.32;;;7.20;;
67889;SDS011;54685;52.082;5.426;2022-08-25T06:18:32;12.35;;;7.20;;
67889;SDS011;54685;52.082;5.426;2022-08-25T06:21:05;9.57;;;7.30;;
67889;SDS011;54685;52.082;5.426;2022-08-25T06:23:35;13.07;;;7.70;;
67889;SDS011;54685;52.082;5.426;2022-08-25T06:26:02;13.73;;;7.25;;
67889;SDS011;54685;52.082;5.426;2022-08-25T06:28:29;9.85;;;7.28;;
67889;SDS011;54685;52.082;5.426;2022-08-25T06:31:00;15.50;;;8.05;;
67889;SDS011;54685;52.082;5.426;2022-08-25T06:33:30;16.65;;;7.88;;
67889;SDS011;54685;52.082;5.426;2022-08-25T06:35:57;13.40;;;7.72;;
67889;SDS011;54685;52.082;5.426;2022-08-25T06:38:24;13.88;;;7.25;;
67889;SDS011;54685;52.082;5.426;2022-08-25T06:40:52;16.17;;;6.80;;
67889;SDS011;54685;52.082;5.426;2022-08-25T06:43:19;13.05;;;6.75;;
67889;SDS011;54685;52.082;5.426;2022-08-25T06:45:52;16.95;;;7.13;;
67889;SDS011;54685;52.082;5.426;2022-08-25T06:48:18;14.45;;;6.43;;
67889;SDS011;54685;52.082;5.426;2022-08-25T06:50:46;9.45;;;6.35;;
67889;SDS011;54685;52.082;5.426;2022-08-25T06:53:13;13.98;;;5.90;;
67889;SDS011;54685;52.082;5.426;2022-08-25T06:55:40;11.68;;;6.15;;
67889;SDS011;54685;52.082;5.426;2022-08-25T06:58:07;8.73;;;5.70;;
67889;SDS011;54685;52.082;5.426;2022-08-25T07:00:36;12.95;;;5.38;;
67889;SDS011;54685;52.082;5.426;2022-08-25T07:03:03;10.02;;;5.30;;
67889;SDS011;54685;52.082;5.426;2022-08-25T07:05:32;6.32;;;4.47;;
67889;SDS011;54685;52.082;5.426;2022-08-25T07:08:08;11.05;;;4.20;;
67889;SDS011;54685;52.082;5.426;2022-08-25T07:10:37;5.95;;;3.60;;
67889;SDS011;54685;52.082;5.426;2022-08-25T07:13:04;9.93;;;3.97;;
67889;SDS011;54685;52.082;5.426;2022-08-25T07:15:31;7.63;;;4.10;;
67889;SDS011;54685;52.082;5.426;2022-08-25T07:17:57;14.20;;;3.95;;
67889;SDS011;54685;52.082;5.426;2022-08-25T07:20:24;14.02;;;4.10;;
67889;SDS011;54685;52.082;5.426;2022-08-25T07:22:51;10.15;;;3.78;;
67889;SDS011;54685;52.082;5.426;2022-08-25T07:25:18;6.15;;;3.25;;
67889;SDS011;54685;52.082;5.426;2022-08-25T07:27:44;7.60;;;3.20;;
67889;SDS011;54685;52.082;5.426;2022-08-25T07:30:11;11.52;;;3.40;;
67889;SDS011;54685;52.082;5.426;2022-08-25T07:32:38;17.55;;;3.33;;
67889;SDS011;54685;52.082;5.426;2022-08-25T07:35:08;10.70;;;3.20;;
67889;SDS011;54685;52.082;5.426;2022-08-25T07:37:48;12.30;;;3.65;;
67889;SDS011;54685;52.082;5.426;2022-08-25T07:40:20;6.35;;;3.70;;
67889;SDS011;54685;52.082;5.426;2022-08-25T07:42:56;10.13;;;3.30;;
67889;SDS011;54685;52.082;5.426;2022-08-25T07:45:26;8.88;;;3.45;;
67889;SDS011;54685;52.082;5.426;2022-08-25T07:47:56;7.93;;;3.38;;
67889;SDS011;54685;52.082;5.426;2022-08-25T07:50:27;8.70;;;3.40;;
67889;SDS011;54685;52.082;5.426;2022-08-25T07:52:56;7.68;;;3.03;;
67889;SDS011;54685;52.082;5.426;2022-08-25T07:55:24;11.93;;;3.47;;
67889;SDS011;54685;52.082;5.426;2022-08-25T07:57:52;9.30;;;3.10;;
67889;SDS011;54685;52.082;5.426;2022-08-25T08:00:37;4.75;;;3.10;;
67889;SDS011;54685;52.082;5.426;2022-08-25T08:03:07;7.10;;;3.03;;
67889;SDS011;54685;52.082;5.426;2022-08-25T08:05:49;9.43;;;3.30;;
67889;SDS011;54685;52.082;5.426;2022-08-25T08:08:15;7.38;;;3.20;;
67889;SDS011;54685;52.082;5.426;2022-08-25T08:10:44;11.77;;;3.15;;
67889;SDS011;54685;52.082;5.426;2022-08-25T08:13:29;7.38;;;3.63;;
67889;SDS011;54685;52.082;5.426;2022-08-25T08:15:56;8.63;;;3.53;;
67889;SDS011;54685;52.082;5.426;2022-08-25T08:18:23;8.18;;;3.45;;
67889;SDS011;54685;52.082;5.426;2022-08-25T08:20:50;7.43;;;2.83;;
67889;SDS011;54685;52.082;5.426;2022-08-25T08:23:17;8.27;;;3.40;;
67889;SDS011;54685;52.082;5.426;2022-08-25T08:25:43;6.68;;;3.42;;
67889;SDS011;54685;52.082;5.426;2022-08-25T08:28:10;9.40;;;3.22;;
67889;SDS011;54685;52.082;5.426;2022-08-25T08:30:38;7.05;;;3.30;;
67889;SDS011;54685;52.082;5.426;2022-08-25T08:33:18;6.72;;;2.95;;
67889;SDS011;54685;52.082;5.426;2022-08-25T08:35:45;3.72;;;3.08;;
67889;SDS011;54685;52.082;5.426;2022-08-25T08:38:12;4.40;;;3.00;;
67889;SDS011;54685;52.082;5.426;2022-08-25T08:40:52;7.78;;;3.30;;
67889;SDS011;54685;52.082;5.426;2022-08-25T08:47:10;8.02;;;3.25;;
67889;SDS011;54685;52.082;5.426;2022-08-25T08:52:53;12.73;;;3.35;;
67889;SDS011;54685;52.082;5.426;2022-08-25T08:57:57;10.18;;;3.08;;
67889;SDS011;54685;52.082;5.426;2022-08-25T09:00:26;11.15;;;3.30;;
67889;SDS011;54685;52.082;5.426;2022-08-25T09:03:04;6.95;;;2.65;;
67889;SDS011;54685;52.082;5.426;2022-08-25T09:05:42;6.97;;;3.00;;
67889;SDS011;54685;52.082;5.426;2022-08-25T09:08:14;9.00;;;3.35;;
67889;SDS011;54685;52.082;5.426;2022-08-25T09:10:52;14.02;;;3.28;;
67889;SDS011;54685;52.082;5.426;2022-08-25T09:13:40;7.25;;;3.10;;
67889;SDS011;54685;52.082;5.426;2022-08-25T09:16:41;5.57;;;3.05;;
67889;SDS011;54685;52.082;5.426;2022-08-25T09:30:19;3.97;;;2.80;;
67889;SDS011;54685;52.082;5.426;2022-08-25T09:32:51;9.48;;;2.95;;
67889;SDS011;54685;52.082;5.426;2022-08-25T09:35:29;5.55;;;2.72;;
67889;SDS011;54685;52.082;5.426;2022-08-25T09:46:12;4.45;;;2.63;;
67889;SDS011;54685;52.082;5.426;2022-08-25T09:48:55;4.45;;;2.42;;
67889;SDS011;54685;52.082;5.426;2022-08-25T09:56:50;7.50;;;2.83;;
67889;SDS011;54685;52.082;5.426;2022-08-25T09:59:28;8.18;;;2.63;;
67889;SDS011;54685;52.082;5.426;2022-08-25T10:02:19;6.05;;;2.40;;
67889;SDS011;54685;52.082;5.426;2022-08-25T10:04:54;7.25;;;2.60;;
67889;SDS011;54685;52.082;5.426;2022-08-25T10:07:26;5.57;;;2.38;;
67889;SDS011;54685;52.082;5.426;2022-08-25T10:09:56;5.57;;;2.33;;
67889;SDS011;54685;52.082;5.426;2022-08-25T10:12:38;6.75;;;2.42;;
67889;SDS011;54685;52.082;5.426;2022-08-25T10:15:22;5.00;;;2.10;;
67889;SDS011;54685;52.082;5.426;2022-08-25T10:17:57;7.18;;;2.25;;
67889;SDS011;54685;52.082;5.426;2022-08-25T10:20:42;3.33;;;2.30;;
67889;SDS011;54685;52.082;5.426;2022-08-25T10:23:11;5.32;;;2.40;;
67889;SDS011;54685;52.082;5.426;2022-08-25T10:25:41;6.00;;;2.28;;
67889;SDS011;54685;52.082;5.426;2022-08-25T10:28:36;8.45;;;2.40;;
67889;SDS011;54685;52.082;5.426;2022-08-25T10:31:25;6.45;;;2.50;;
67889;SDS011;54685;52.082;5.426;2022-08-25T10:34:17;8.77;;;2.63;;
67889;SDS011;54685;52.082;5.426;2022-08-25T10:39:51;5.45;;;2.00;;
67889;SDS011;54685;52.082;5.426;2022-08-25T10:42:26;7.22;;;2.50;;
67889;SDS011;54685;52.082;5.426;2022-08-25T10:48:01;3.75;;;2.20;;
67889;SDS011;54685;52.082;5.426;2022-08-25T11:07:09;5.22;;;2.05;;
67889;SDS011;54685;52.082;5.426;2022-08-25T11:09:49;4.47;;;1.98;;
67889;SDS011;54685;52.082;5.426;2022-08-25T11:12:24;3.70;;;1.90;;
67889;SDS011;54685;52.082;5.426;2022-08-25T11:15:08;6.43;;;1.90;;
67889;SDS011;54685;52.082;5.426;2022-08-25T11:20:23;9.57;;;2.50;;
67889;SDS011;54685;52.082;5.426;2022-08-25T11:23:05;7.30;;;1.77;;
67889;SDS011;54685;52.082;5.426;2022-08-25T11:25:50;2.85;;;1.60;;
67889;SDS011;54685;52.082;5.426;2022-08-25T11:28:21;3.15;;;1.80;;
67889;SDS011;54685;52.082;5.426;2022-08-25T11:31:00;4.95;;;1.60;;
67889;SDS011;54685;52.082;5.426;2022-08-25T11:33:30;5.10;;;1.55;;
67889;SDS011;54685;52.082;5.426;2022-08-25T11:36:02;6.55;;;1.60;;
67889;SDS011;54685;52.082;5.426;2022-08-25T11:38:46;2.38;;;1.67;;
67889;SDS011;54685;52.082;5.426;2022-08-25T11:41:22;4.15;;;2.22;;
67889;SDS011;54685;52.082;5.426;2022-08-25T11:51:57;4.13;;;1.70;;
67889;SDS011;54685;52.082;5.426;2022-08-25T11:54:29;5.63;;;2.08;;
67889;SDS011;54685;52.082;5.426;2022-08-25T11:57:09;4.93;;;2.00;;
67889;SDS011;54685;52.082;5.426;2022-08-25T12:02:47;5.55;;;1.90;;
67889;SDS011;54685;52.082;5.426;2022-08-25T12:10:59;4.72;;;2.00;;
67889;SDS011;54685;52.082;5.426;2022-08-25T12:21:51;3.15;;;1.63;;
67889;SDS011;54685;52.082;5.426;2022-08-25T12:30:17;2.92;;;1.70;;
67889;SDS011;54685;52.082;5.426;2022-08-25T12:33:06;5.45;;;1.85;;
67889;SDS011;54685;52.082;5.426;2022-08-25T12:35:50;5.65;;;1.80;;
67889;SDS011;54685;52.082;5.426;2022-08-25T12:38:26;4.03;;;2.10;;
67889;SDS011;54685;52.082;5.426;2022-08-25T12:41:06;8.55;;;2.33;;
67889;SDS011;54685;52.082;5.426;2022-08-25T12:43:50;4.88;;;1.88;;
67889;SDS011;54685;52.082;5.426;2022-08-25T12:52:00;4.40;;;1.65;;
67889;SDS011;54685;52.082;5.426;2022-08-25T12:57:22;8.05;;;2.50;;
67889;SDS011;54685;52.082;5.426;2022-08-25T12:59:58;3.22;;;1.73;;
67889;SDS011;54685;52.082;5.426;2022-08-25T13:13:35;3.72;;;2.05;;
67889;SDS011;54685;52.082;5.426;2022-08-25T13:16:29;7.07;;;2.42;;
67889;SDS011;54685;52.082;5.426;2022-08-25T13:18:57;7.18;;;2.13;;
67889;SDS011;54685;52.082;5.426;2022-08-25T13:21:30;8.68;;;1.80;;
67889;SDS011;54685;52.082;5.426;2022-08-25T13:24:05;5.72;;;1.80;;
67889;SDS011;54685;52.082;5.426;2022-08-25T13:26:39;4.22;;;1.98;;
67889;SDS011;54685;52.082;5.426;2022-08-25T13:29:15;4.05;;;1.90;;
67889;SDS011;54685;52.082;5.426;2022-08-25T13:31:59;4.13;;;2.00;;
67889;SDS011;54685;52.082;5.426;2022-08-25T13:34:38;8.43;;;2.22;;
67889;SDS011;54685;52.082;5.426;2022-08-25T13:37:09;3.83;;;2.17;;
67889;SDS011;54685;52.082;5.426;2022-08-25T13:42:39;7.38;;;2.25;;
67889;SDS011;54685;52.082;5.426;2022-08-25T13:45:17;3.45;;;2.00;;
67889;SDS011;54685;52.082;5.426;2022-08-25T13:47:49;3.38;;;1.90;;
67889;SDS011;54685;52.082;5.426;2022-08-25T13:55:48;7.07;;;2.30;;
67889;SDS011;54685;52.082;5.426;2022-08-25T13:58:26;3.20;;;1.60;;
67889;SDS011;54685;52.082;5.426;2022-08-25T14:01:12;7.78;;;2.35;;
67889;SDS011;54685;52.082;5.426;2022-08-25T14:07:05;9.95;;;2.08;;
67889;SDS011;54685;52.082;5.426;2022-08-25T14:12:36;4.82;;;1.80;;
67889;SDS011;54685;52.082;5.426;2022-08-25T14:17:36;6.85;;;2.08;;
67889;SDS011;54685;52.082;5.426;2022-08-25T14:20:17;3.63;;;1.90;;
67889;SDS011;54685;52.082;5.426;2022-08-25T14:22:53;5.97;;;1.95;;
67889;SDS011;54685;52.082;5.426;2022-08-25T14:25:23;3.40;;;2.10;;
67889;SDS011;54685;52.082;5.426;2022-08-25T14:27:59;4.63;;;1.92;;
67889;SDS011;54685;52.082;5.426;2022-08-25T14:30:34;3.75;;;1.85;;
67889;SDS011;54685;52.082;5.426;2022-08-25T14:33:04;3.25;;;2.05;;
67889;SDS011;54685;52.082;5.426;2022-08-25T14:35:32;7.28;;;1.75;;
67889;SDS011;54685;52.082;5.426;2022-08-25T14:38:02;4.85;;;1.92;;
67889;SDS011;54685;52.082;5.426;2022-08-25T14:40:33;4.78;;;2.13;;
67889;SDS011;54685;52.082;5.426;2022-08-25T14:43:00;3.22;;;1.83;;
67889;SDS011;54685;52.082;5.426;2022-08-25T14:45:27;9.25;;;2.08;;
67889;SDS011;54685;52.082;5.426;2022-08-25T14:47:57;6.18;;;1.92;;
67889;SDS011;54685;52.082;5.426;2022-08-25T14:50:35;3.08;;;1.90;;
67889;SDS011;54685;52.082;5.426;2022-08-25T14:53:06;2.78;;;1.90;;
67889;SDS011;54685;52.082;5.426;2022-08-25T14:55:34;3.40;;;2.17;;
67889;SDS011;54685;52.082;5.426;2022-08-25T14:58:02;5.13;;;2.08;;
67889;SDS011;54685;52.082;5.426;2022-08-25T15:00:33;5.53;;;2.10;;
67889;SDS011;54685;52.082;5.426;2022-08-25T15:03:04;6.60;;;2.03;;
67889;SDS011;54685;52.082;5.426;2022-08-25T15:05:31;5.18;;;2.28;;
67889;SDS011;54685;52.082;5.426;2022-08-25T15:07:58;6.07;;;2.15;;
67889;SDS011;54685;52.082;5.426;2022-08-25T15:10:44;5.90;;;2.30;;
67889;SDS011;54685;52.082;5.426;2022-08-25T15:13:11;8.57;;;1.90;;
67889;SDS011;54685;52.082;5.426;2022-08-25T15:15:42;2.65;;;2.08;;
67889;SDS011;54685;52.082;5.426;2022-08-25T15:18:18;3.50;;;2.00;;
67889;SDS011;54685;52.082;5.426;2022-08-25T15:20:46;6.35;;;2.25;;
67889;SDS011;54685;52.082;5.426;2022-08-25T15:23:16;5.23;;;2.00;;
67889;SDS011;54685;52.082;5.426;2022-08-25T15:25:45;3.72;;;2.13;;
67889;SDS011;54685;52.082;5.426;2022-08-25T15:28:18;6.72;;;2.22;;
67889;SDS011;54685;52.082;5.426;2022-08-25T15:30:47;4.22;;;2.03;;
67889;SDS011;54685;52.082;5.426;2022-08-25T15:33:15;4.18;;;2.03;;
67889;SDS011;54685;52.082;5.426;2022-08-25T15:35:42;4.47;;;2.28;;
67889;SDS011;54685;52.082;5.426;2022-08-25T15:38:10;7.90;;;2.22;;
67889;SDS011;54685;52.082;5.426;2022-08-25T15:40:41;3.42;;;2.22;;
67889;SDS011;54685;52.082;5.426;2022-08-25T15:43:08;5.10;;;1.98;;
67889;SDS011;54685;52.082;5.426;2022-08-25T15:45:35;5.22;;;2.05;;
67889;SDS011;54685;52.082;5.426;2022-08-25T15:48:03;3.78;;;2.00;;
67889;SDS011;54685;52.082;5.426;2022-08-25T15:50:35;6.80;;;2.10;;
67889;SDS011;54685;52.082;5.426;2022-08-25T15:53:03;2.67;;;2.05;;
67889;SDS011;54685;52.082;5.426;2022-08-25T15:55:37;4.70;;;2.10;;
67889;SDS011;54685;52.082;5.426;2022-08-25T15:58:05;3.90;;;1.98;;
67889;SDS011;54685;52.082;5.426;2022-08-25T16:00:34;6.53;;;2.10;;
67889;SDS011;54685;52.082;5.426;2022-08-25T16:03:03;5.65;;;2.40;;
67889;SDS011;54685;52.082;5.426;2022-08-25T16:05:36;3.03;;;2.22;;
67889;SDS011;54685;52.082;5.426;2022-08-25T16:08:13;4.25;;;2.10;;
67889;SDS011;54685;52.082;5.426;2022-08-25T16:10:45;2.75;;;1.70;;
67889;SDS011;54685;52.082;5.426;2022-08-25T16:13:12;5.45;;;2.05;;
67889;SDS011;54685;52.082;5.426;2022-08-25T16:15:39;3.47;;;1.88;;
67889;SDS011;54685;52.082;5.426;2022-08-25T16:18:11;3.58;;;2.20;;
67889;SDS011;54685;52.082;5.426;2022-08-25T16:20:38;4.57;;;2.40;;
67889;SDS011;54685;52.082;5.426;2022-08-25T16:23:09;6.80;;;2.30;;
67889;SDS011;54685;52.082;5.426;2022-08-25T16:25:42;7.13;;;2.83;;
67889;SDS011;54685;52.082;5.426;2022-08-25T16:28:12;26.27;;;14.75;;
67889;SDS011;54685;52.082;5.426;2022-08-25T16:30:45;13.75;;;6.38;;
67889;SDS011;54685;52.082;5.426;2022-08-25T16:33:18;7.28;;;2.63;;
67889;SDS011;54685;52.082;5.426;2022-08-25T16:35:45;8.93;;;2.92;;
67889;SDS011;54685;52.082;5.426;2022-08-25T16:38:14;6.45;;;2.45;;
67889;SDS011;54685;52.082;5.426;2022-08-25T16:40:41;7.72;;;2.00;;
67889;SDS011;54685;52.082;5.426;2022-08-25T16:43:08;3.97;;;2.45;;
67889;SDS011;54685;52.082;5.426;2022-08-25T16:45:36;5.93;;;2.08;;
67889;SDS011;54685;52.082;5.426;2022-08-25T16:48:03;3.35;;;2.08;;
67889;SDS011;54685;52.082;5.426;2022-08-25T16:50:31;4.90;;;2.38;;
67889;SDS011;54685;52.082;5.426;2022-08-25T16:52:59;3.65;;;2.00;;
67889;SDS011;54685;52.082;5.426;2022-08-25T16:55:49;8.43;;;2.28;;
67889;SDS011;54685;52.082;5.426;2022-08-25T16:58:25;6.50;;;2.28;;
67889;SDS011;54685;52.082;5.426;2022-08-25T17:00:55;5.43;;;2.10;;
67889;SDS011;54685;52.082;5.426;2022-08-25T17:03:31;9.95;;;2.33;;
67889;SDS011;54685;52.082;5.426;2022-08-25T17:05:59;4.05;;;2.10;;
67889;SDS011;54685;52.082;5.426;2022-08-25T17:08:26;7.03;;;2.58;;
67889;SDS011;54685;52.082;5.426;2022-08-25T17:13:30;8.15;;;2.33;;
67889;SDS011;54685;52.082;5.426;2022-08-25T17:15:58;9.10;;;2.50;;
67889;SDS011;54685;52.082;5.426;2022-08-25T17:18:28;3.35;;;2.17;;
67889;SDS011;54685;52.082;5.426;2022-08-25T17:20:59;2.10;;;1.90;;
67889;SDS011;54685;52.082;5.426;2022-08-25T17:23:29;5.38;;;2.58;;